MBL weather

Manistee Co Blacker Airport
Manistee, Michigan, United States

Public forecast

Using degrees Fahrenheit for public forecast. Weather courtesy of forecast.io.

METAR (pilot weather report)

Retrieved 2019/05/19 12:56 UTC (55 minutes ago):

KMBL 191256Z AUTO 09009KT 10SM -RA BKN021 BKN055 OVC070 12/11 A2964 RMK AO2 SLP037 P0018 T01170111

TAF (pilot weather forecast)

Retrieved 2019/05/19 12:24 UTC (1 hour ago):

TAF KMBL 191123Z 1912/2012 11008KT P6SM -SHRA OVC040 FM191400 16008KT 6SM -SHRA BR OVC015 FM191500 17008KT 4SM BR OVC007 FM191700 20008KT 3SM -SHRA BR OVC007 FM191900 21010KT 6SM BR VCSH OVC012 FM192100 20012KT P6SM VCSH OVC020 FM192300 21012G20KT P6SM VCSH OVC015 FM200100 24011G19KT P6SM -DZ OVC030 FM200600 25010G18KT P6SM OVC015